X  Cerrar Datos meteorológicos de aviación METAR     LGRX Patras Araxos Agamemnon Airport
Temperatura
34°C Temperatura
17°C Punto de rocío
36% Humedad



Viento
13 KM/H
8 MPH
4 M/S
7 NUDO



350°
N
Condiciones actuales

Claro Claro
Presión 1012.87 (hPa) - 29.91 (inHg)
Visibilidad 6 (milla) - 9.7 (km)
Aeropuerto
Código de aeropuerto LGRX

localidad: Patras Araxos Agamemnon Airport
Distancia: 108 (km)

Metar:
LGRX 200920Z 35007KT CAVOK 34/17 Q1013

Hora: 20-06-2024 12:20 EEST